Time;durP1;ratioP1;P1;durP2;ratioP2;P2;SDS_P1;SDS_P2;PMS_P1;PMS_P2;Temp;Humidity;BMP_temperature;BMP_pressure;BME280_temperature;BME280_humidity;BME280_pressure;Samples;Min_cycle;Max_cycle;Signal;HPM_P1;HPM_P2
2022/04/26 03:36:42;;;;;;;6.55;5.85;;;;;;;10.14;100.00;98967.91;4950333;29;20189;-81
2022/04/26 03:39:09;;;;;;;9.57;6.15;;;;;;;10.29;100.00;98963.34;4955169;28;20193;-82
2022/04/26 03:41:36;;;;;;;11.00;6.35;;;;;;;10.37;100.00;98964.56;4955001;28;20197;-83
2022/04/26 03:44:02;;;;;;;7.15;6.45;;;;;;;10.27;100.00;98968.81;4956255;28;20188;-82
2022/04/26 03:46:29;;;;;;;7.32;6.10;;;;;;;10.08;100.00;98969.16;4955316;28;20291;-82
2022/04/26 03:48:55;;;;;;;6.63;5.72;;;;;;;9.81;100.00;98977.22;4956441;28;20203;-82
2022/04/26 03:51:23;;;;;;;6.25;5.65;;;;;;;9.69;100.00;98975.34;4956103;28;20209;-82
2022/04/26 03:53:50;;;;;;;6.55;5.93;;;;;;;9.53;100.00;98975.44;4956064;28;20196;-82
2022/04/26 03:56:16;;;;;;;6.82;6.13;;;;;;;9.61;100.00;98970.47;4956401;28;20201;-82
2022/04/26 03:58:43;;;;;;;8.13;6.60;;;;;;;9.64;100.00;98977.47;4956169;28;20192;-82
2022/04/26 04:01:10;;;;;;;8.93;6.53;;;;;;;9.60;100.00;98974.09;4956566;28;20196;-81
2022/04/26 04:03:38;;;;;;;8.88;6.97;;;;;;;9.46;100.00;98983.03;4956322;28;20196;-82
2022/04/26 04:06:04;;;;;;;10.07;8.35;;;;;;;9.27;100.00;98987.81;4956949;28;20550;-83
2022/04/26 04:08:32;;;;;;;8.93;8.02;;;;;;;9.26;100.00;98986.97;4955794;28;20652;-82
2022/04/26 04:10:59;;;;;;;8.05;6.65;;;;;;;9.11;100.00;98978.06;4955625;28;20217;-82
2022/04/26 04:13:26;;;;;;;10.02;8.18;;;;;;;9.25;100.00;98985.25;4955637;28;20202;-82
2022/04/26 04:15:52;;;;;;;7.93;7.13;;;;;;;9.10;100.00;98983.53;4956286;28;20266;-82
2022/04/26 04:21:03;;;;;;;8.38;7.47;;;;;;;9.16;100.00;98980.47;4955397;29;20664;-82
2022/04/26 04:23:30;;;;;;;8.82;7.65;;;;;;;9.00;100.00;98988.59;4955971;28;20562;-82
2022/04/26 04:25:57;;;;;;;8.52;7.72;;;;;;;8.77;100.00;98995.34;4955805;28;20200;-82
2022/04/26 04:28:24;;;;;;;9.18;6.93;;;;;;;8.78;100.00;99002.47;4955944;28;20198;-82
2022/04/26 04:30:51;;;;;;;7.70;6.90;;;;;;;8.84;100.00;99011.94;4954992;28;20223;-81
2022/04/26 04:33:18;;;;;;;9.75;8.38;;;;;;;8.80;100.00;99011.28;4956620;28;20627;-82
2022/04/26 04:35:45;;;;;;;9.70;7.75;;;;;;;8.81;100.00;99014.81;4936968;28;20207;-82
2022/04/26 04:38:11;;;;;;;8.70;7.80;;;;;;;8.71;100.00;99010.00;4933727;29;20198;-82
2022/04/26 04:40:38;;;;;;;9.85;7.40;;;;;;;8.75;100.00;99014.25;4943018;29;20195;-83
2022/04/26 04:43:06;;;;;;;9.88;7.80;;;;;;;8.77;100.00;99016.81;4954022;28;20553;-82
2022/04/26 04:45:33;;;;;;;8.05;7.25;;;;;;;8.90;100.00;99016.97;4951000;28;20218;-83
2022/04/26 04:47:59;;;;;;;8.48;7.15;;;;;;;9.00;100.00;99019.94;4934747;29;20200;-83
2022/04/26 04:50:26;;;;;;;8.63;7.47;;;;;;;9.04;100.00;99029.53;4934347;29;20224;-82
2022/04/26 04:52:52;;;;;;;9.13;7.95;;;;;;;9.07;100.00;99030.22;4934611;29;20204;-82
2022/04/26 04:55:19;;;;;;;11.23;7.85;;;;;;;9.07;100.00;99034.75;4934604;29;20203;-86
2022/04/26 04:57:45;;;;;;;8.80;7.75;;;;;;;8.97;100.00;99035.28;4937699;29;20201;-82
2022/04/26 05:00:14;;;;;;;12.20;8.10;;;;;;;8.92;100.00;99034.69;4945904;28;20205;-80
2022/04/26 05:02:41;;;;;;;9.50;7.90;;;;;;;8.85;100.00;99036.03;4934606;29;20202;-80
2022/04/26 05:05:08;;;;;;;8.90;8.00;;;;;;;8.77;100.00;99040.97;4934421;29;20212;-79
2022/04/26 05:07:35;;;;;;;9.63;7.10;;;;;;;8.79;100.00;99040.91;4934070;29;20524;-81
2022/04/26 05:10:01;;;;;;;9.23;7.32;;;;;;;8.68;100.00;99046.91;4934031;29;20216;-81
2022/04/26 05:12:28;;;;;;;8.50;7.40;;;;;;;8.64;100.00;99048.91;4934177;29;20543;-82
2022/04/26 05:14:54;;;;;;;8.77;7.55;;;;;;;8.54;100.00;99043.19;4934121;29;20212;-80
2022/04/26 05:17:22;;;;;;;13.50;8.88;;;;;;;8.63;100.00;99049.00;4934149;29;20279;-80
2022/04/26 05:19:49;;;;;;;12.63;7.72;;;;;;;8.72;100.00;99052.00;4937951;29;20191;-80
2022/04/26 05:22:16;;;;;;;9.88;8.23;;;;;;;8.64;100.00;99046.22;4944969;29;20195;-81
2022/04/26 05:24:54;;;;;;;10.25;8.50;;;;;;;8.61;100.00;99042.84;4957018;28;20194;-82
2022/04/26 05:27:21;;;;;;;12.75;7.95;;;;;;;8.65;100.00;99055.13;4956382;28;20187;-83
2022/04/26 05:29:48;;;;;;;9.15;7.25;;;;;;;8.87;100.00;99055.59;4956860;28;20257;-83
2022/04/26 05:32:19;;;;;;;9.45;8.10;;;;;;;9.15;100.00;99053.91;4956158;28;20195;-82
2022/04/26 05:34:47;;;;;;;11.90;10.25;;;;;;;9.26;100.00;99046.06;4949411;28;20207;-82
2022/04/26 05:37:13;;;;;;;10.82;9.68;;;;;;;9.39;100.00;99046.19;4938081;29;20197;-82
2022/04/26 05:39:40;;;;;;;14.25;11.43;;;;;;;9.24;100.00;99052.50;4937623;29;20208;-82
2022/04/26 05:42:07;;;;;;;13.43;9.20;;;;;;;9.17;100.00;99057.38;4937138;29;20196;-83
2022/04/26 05:44:38;;;;;;;12.95;8.88;;;;;;;9.29;100.00;99056.63;4938010;29;20240;-81
2022/04/26 05:47:05;;;;;;;19.00;9.88;;;;;;;9.39;100.00;99067.69;4944595;29;20802;-82
2022/04/26 05:49:32;;;;;;;9.88;7.93;;;;;;;9.48;100.00;99067.13;4956386;28;20196;-82
2022/04/26 05:52:00;;;;;;;9.75;8.60;;;;;;;9.93;100.00;99065.19;4955945;28;20239;-82
2022/04/26 05:54:26;;;;;;;12.35;9.73;;;;;;;9.99;100.00;99067.47;4956010;28;20188;-82
2022/04/26 05:56:53;;;;;;;11.80;9.07;;;;;;;9.99;100.00;99067.47;4955263;28;20200;-83
2022/04/26 05:59:20;;;;;;;12.18;8.60;;;;;;;9.77;100.00;99073.34;4955926;28;20203;-83
2022/04/26 06:01:47;;;;;;;14.77;10.63;;;;;;;9.87;100.00;99070.06;4956213;28;20200;-83
2022/04/26 06:04:13;;;;;;;10.55;9.25;;;;;;;9.74;100.00;99076.22;4956377;28;20193;-82
2022/04/26 06:06:40;;;;;;;14.57;9.20;;;;;;;9.65;100.00;99075.94;4956130;28;20192;-82
2022/04/26 06:09:08;;;;;;;12.40;9.65;;;;;;;9.68;100.00;99084.69;4955309;28;20203;-83
2022/04/26 06:11:35;;;;;;;13.20;10.25;;;;;;;9.56;100.00;99085.44;4955542;28;20226;-82
2022/04/26 06:14:04;;;;;;;13.05;10.07;;;;;;;9.68;100.00;99084.69;4954914;28;20217;-83
2022/04/26 06:16:30;;;;;;;14.93;11.63;;;;;;;9.64;100.00;99085.84;4955582;28;20247;-83
2022/04/26 06:18:57;;;;;;;12.05;9.90;;;;;;;9.87;100.00;99086.22;4955861;28;20278;-82
2022/04/26 06:21:23;;;;;;;14.20;11.52;;;;;;;10.12;100.00;99088.19;4955708;28;20539;-83
2022/04/26 06:23:50;;;;;;;11.68;9.98;;;;;;;10.17;100.00;99089.59;4955483;28;20211;-83
2022/04/26 06:26:19;;;;;;;12.35;10.20;;;;;;;10.41;100.00;99092.56;4955557;28;20187;-83
2022/04/26 06:28:45;;;;;;;13.55;10.68;;;;;;;10.79;100.00;99091.88;4955263;28;20193;-83
2022/04/26 06:31:12;;;;;;;10.23;9.13;;;;;;;10.93;100.00;99098.16;4955333;28;20240;-84
2022/04/26 06:33:38;;;;;;;11.27;9.60;;;;;;;10.75;100.00;99097.56;4955278;28;20196;-83
2022/04/26 06:36:06;;;;;;;14.95;10.80;;;;;;;10.25;100.00;99093.66;4955144;28;20196;-83
2022/04/26 06:38:33;;;;;;;13.60;10.13;;;;;;;10.40;100.00;99095.34;4955351;28;20208;-82
2022/04/26 06:40:59;;;;;;;11.82;9.60;;;;;;;10.69;100.00;99097.97;4955248;28;20196;-83
2022/04/26 06:43:27;;;;;;;12.10;10.70;;;;;;;11.31;100.00;99100.94;4955277;28;20201;-83
2022/04/26 06:45:54;;;;;;;12.70;10.40;;;;;;;10.98;100.00;99104.09;4955553;28;20347;-84
2022/04/26 06:48:21;;;;;;;11.45;9.43;;;;;;;11.02;100.00;99103.78;4954730;28;20208;-83
2022/04/26 06:50:48;;;;;;;11.38;10.23;;;;;;;11.10;100.00;99102.38;4955432;28;20215;-83
2022/04/26 06:53:15;;;;;;;13.85;10.32;;;;;;;11.41;100.00;99107.41;4955049;28;20208;-81
2022/04/26 06:55:41;;;;;;;12.70;9.93;;;;;;;11.27;100.00;99112.88;4955093;28;20189;-83
2022/04/26 06:58:08;;;;;;;12.45;10.57;;;;;;;11.07;100.00;99114.25;4955077;28;20192;-83
2022/04/26 07:00:36;;;;;;;12.00;10.30;;;;;;;11.31;100.00;99117.09;4955123;28;20209;-82
2022/04/26 07:03:03;;;;;;;12.52;10.50;;;;;;;11.31;100.00;99111.72;4955330;28;20211;-83
2022/04/26 07:05:29;;;;;;;14.55;10.98;;;;;;;11.00;100.00;99113.78;4954941;28;20200;-82
2022/04/26 07:07:56;;;;;;;14.90;11.13;;;;;;;10.82;100.00;99115.88;4954723;28;20201;-83
2022/04/26 07:10:22;;;;;;;14.65;12.10;;;;;;;10.88;100.00;99109.25;4954819;28;20217;-83
2022/04/26 07:12:49;;;;;;;17.05;12.88;;;;;;;11.11;100.00;99107.69;4954879;28;20189;-83
2022/04/26 07:15:15;;;;;;;16.95;13.35;;;;;;;11.09;100.00;99109.63;4954815;28;20572;-82
2022/04/26 07:17:44;;;;;;;17.00;13.65;;;;;;;11.35;100.00;99112.34;4954472;28;20717;-84
2022/04/26 07:20:11;;;;;;;16.02;12.65;;;;;;;11.17;100.00;99106.38;4954595;28;20189;-83
2022/04/26 07:22:38;;;;;;;16.55;12.95;;;;;;;11.28;100.00;99117.28;4954565;28;20207;-83
2022/04/26 07:25:05;;;;;;;17.25;13.80;;;;;;;11.78;100.00;99115.63;4954420;28;20196;-83
2022/04/26 07:27:32;;;;;;;18.27;13.02;;;;;;;11.71;100.00;99117.00;4954731;28;20193;-83
2022/04/26 07:29:59;;;;;;;16.67;12.13;;;;;;;11.53;100.00;99113.75;4954208;28;20216;-83
2022/04/26 07:35:10;;;;;;;16.15;12.75;;;;;;;11.63;98.01;99111.31;4954122;29;20559;-83
2022/04/26 07:37:37;;;;;;;16.00;12.38;;;;;;;11.85;95.25;99119.59;4954546;28;20639;-83
2022/04/26 07:40:04;;;;;;;14.95;11.48;;;;;;;11.80;96.41;99115.50;4954009;28;20670;-83
2022/04/26 07:42:31;;;;;;;14.27;11.65;;;;;;;11.98;95.88;99122.31;4954536;28;20591;-83
2022/04/26 07:44:57;;;;;;;18.27;12.88;;;;;;;11.99;94.93;99123.19;4954289;28;20612;-83
2022/04/26 07:47:26;;;;;;;14.10;11.27;;;;;;;11.91;90.42;99131.81;4954107;28;20201;-83
2022/04/26 07:49:53;;;;;;;16.65;12.25;;;;;;;11.74;91.50;99124.91;4954572;28;20193;-82
2022/04/26 07:52:23;;;;;;;13.43;10.75;;;;;;;11.72;90.87;99136.78;4953949;28;20209;-83
2022/04/26 07:54:49;;;;;;;15.52;10.18;;;;;;;11.94;89.82;99128.03;4954209;28;20239;-83
2022/04/26 07:57:16;;;;;;;11.40;9.50;;;;;;;12.27;85.11;99136.41;4954201;28;20207;-84
2022/04/26 07:59:43;;;;;;;14.02;9.48;;;;;;;12.86;79.42;99134.81;4954121;28;20197;-83
2022/04/26 08:02:10;;;;;;;11.68;9.13;;;;;;;12.55;80.81;99139.81;4955387;28;20201;-83
2022/04/26 08:04:37;;;;;;;12.00;9.85;;;;;;;12.29;82.14;99147.94;4955746;28;20189;-83
2022/04/26 08:07:39;;;;;;;11.38;8.18;;;;;;;12.46;82.62;99143.19;4957140;28;20276;-82
2022/04/26 08:10:07;;;;;;;12.75;10.00;;;;;;;12.76;80.79;99144.59;4949770;28;20211;-76
2022/04/26 08:12:33;;;;;;;12.77;10.05;;;;;;;13.06;80.55;99153.09;4953942;28;20213;-77
2022/04/26 08:15:00;;;;;;;12.07;8.93;;;;;;;13.16;76.75;99153.28;4954156;28;20200;-75
2022/04/26 08:17:27;;;;;;;10.02;8.25;;;;;;;13.03;77.75;99150.63;4953970;28;20234;-76
2022/04/26 08:19:53;;;;;;;12.48;9.45;;;;;;;12.91;79.02;99147.00;4953940;28;20187;-75
2022/04/26 08:22:20;;;;;;;9.40;8.30;;;;;;;12.84;79.49;99159.22;4954945;28;20190;-76
2022/04/26 08:27:33;;;;;;;10.68;8.70;;;;;;;13.09;76.32;99169.09;4954056;29;20192;-74
2022/04/26 08:30:02;;;;;;;11.40;8.75;;;;;;;13.28;76.20;99167.72;4953803;28;20647;-75
2022/04/26 08:32:38;;;;;;;9.02;7.72;;;;;;;13.51;74.19;99168.66;4953091;28;20233;-77
2022/04/26 08:35:06;;;;;;;10.30;7.85;;;;;;;14.04;69.79;99171.75;4953784;28;20223;-76
2022/04/26 08:37:34;;;;;;;8.48;6.88;;;;;;;14.62;67.75;99171.63;4954345;28;20198;-76
2022/04/26 08:40:05;;;;;;;9.00;7.20;;;;;;;14.69;63.89;99156.56;4953715;28;20204;-76
2022/04/26 08:42:36;;;;;;;10.65;8.85;;;;;;;14.85;64.10;99166.16;4953507;28;20196;-76
2022/04/26 08:45:05;;;;;;;7.00;6.30;;;;;;;14.80;61.14;99163.81;4953857;28;20219;-77
2022/04/26 08:53:01;;;;;;;5.20;4.70;;;;;;;12.88;62.17;99176.94;4955066;28;20693;-77
2022/04/26 08:55:31;;;;;;;5.38;4.32;;;;;;;12.89;63.02;99173.28;4957731;28;20641;-75
2022/04/26 08:57:58;;;;;;;6.28;4.80;;;;;;;13.07;63.48;99178.28;4957640;28;20252;-76
2022/04/26 09:00:25;;;;;;;5.38;4.72;;;;;;;13.13;60.73;99192.19;4957567;28;20192;-75
2022/04/26 09:03:01;;;;;;;4.82;4.30;;;;;;;13.35;61.81;99186.06;4957319;28;20615;-76
2022/04/26 09:05:28;;;;;;;6.72;6.00;;;;;;;13.53;65.76;99189.19;4957329;28;20620;-76
2022/04/26 09:07:55;;;;;;;9.65;6.07;;;;;;;13.90;62.40;99188.19;4957114;28;20187;-76
2022/04/26 09:10:22;;;;;;;11.30;5.53;;;;;;;14.45;61.06;99185.63;4957292;28;20200;-76
2022/04/26 09:13:07;;;;;;;7.75;6.45;;;;;;;14.69;58.83;99201.78;4955881;28;20318;-76
2022/04/26 09:15:39;;;;;;;7.05;5.80;;;;;;;13.66;64.43;99199.09;4956834;28;20207;-75
2022/04/26 09:18:20;;;;;;;6.60;5.90;;;;;;;13.14;69.31;99203.88;4956647;28;20290;-76
2022/04/26 09:20:48;;;;;;;7.78;6.85;;;;;;;13.00;70.33;99209.44;4956888;28;20234;-76
2022/04/26 09:23:16;;;;;;;6.10;5.50;;;;;;;13.20;69.31;99214.22;4956644;28;20195;-76
2022/04/26 09:25:43;;;;;;;6.75;5.80;;;;;;;13.22;69.80;99217.66;4956452;28;20210;-77
2022/04/26 09:28:20;;;;;;;6.28;4.95;;;;;;;13.23;68.96;99226.63;4956716;28;20196;-75
2022/04/26 09:30:47;;;;;;;6.35;5.35;;;;;;;13.18;68.35;99223.41;4956800;28;20194;-75
2022/04/26 09:33:31;;;;;;;7.35;5.55;;;;;;;13.71;66.02;99223.94;4956757;28;20191;-76
2022/04/26 09:36:01;;;;;;;5.45;4.95;;;;;;;13.91;64.31;99231.38;4956706;28;20198;-77
2022/04/26 09:38:31;;;;;;;5.78;5.20;;;;;;;13.65;65.31;99232.53;4955930;28;20211;-76
2022/04/26 09:41:00;;;;;;;4.65;4.15;;;;;;;12.95;71.49;99236.81;4956542;28;20201;-76
2022/04/26 09:43:29;;;;;;;6.47;4.72;;;;;;;13.08;77.85;99237.63;4955997;28;20195;-77
2022/04/26 09:45:57;;;;;;;4.55;4.15;;;;;;;13.06;79.59;99242.28;4956829;28;20691;-77
2022/04/26 09:48:28;;;;;;;6.65;4.70;;;;;;;12.68;82.28;99251.34;4956769;28;20190;-77
2022/04/26 09:50:56;;;;;;;8.50;6.30;;;;;;;12.60;87.50;99253.75;4956427;28;20216;-76
2022/04/26 09:53:23;;;;;;;9.35;5.47;;;;;;;12.38;85.01;99250.88;4956585;28;20220;-76
2022/04/26 09:55:50;;;;;;;7.80;6.88;;;;;;;12.40;84.41;99257.03;4956283;28;20507;-76
2022/04/26 09:58:20;;;;;;;11.20;8.73;;;;;;;12.30;84.62;99262.19;4956271;28;20210;-76
2022/04/26 10:00:50;;;;;;;13.95;10.45;;;;;;;12.50;82.60;99264.38;4956248;28;20300;-76
2022/04/26 10:03:21;;;;;;;14.90;11.93;;;;;;;12.46;84.59;99265.56;4955478;28;20193;-76
2022/04/26 10:05:51;;;;;;;12.13;9.57;;;;;;;12.56;88.92;99268.44;4956195;28;20202;-75
2022/04/26 10:08:19;;;;;;;13.95;10.70;;;;;;;13.00;81.65;99263.50;4956239;28;20546;-75
2022/04/26 10:10:47;;;;;;;15.35;11.45;;;;;;;13.49;80.09;99266.13;4956339;28;20189;-75
2022/04/26 10:16:04;;;;;;;13.25;10.32;;;;;;;13.81;70.41;99252.00;4955066;29;20372;-77
2022/04/26 10:18:34;;;;;;;12.32;9.73;;;;;;;13.78;67.06;99257.66;4956023;28;20624;-75
2022/04/26 10:21:02;;;;;;;12.00;9.15;;;;;;;13.87;68.06;99259.66;4955690;28;20215;-75
2022/04/26 10:23:28;;;;;;;10.13;8.90;;;;;;;14.18;68.20;99262.69;4955795;28;20191;-76
2022/04/26 10:26:24;;;;;;;11.55;8.95;;;;;;;14.00;68.58;99262.28;4955196;28;20630;-76
2022/04/26 10:28:52;;;;;;;9.93;8.90;;;;;;;14.88;65.39;99253.50;4955184;28;20226;-77
2022/04/26 10:31:34;;;;;;;12.07;9.35;;;;;;;15.05;61.54;99257.53;4955374;28;20227;-76
2022/04/26 10:34:03;;;;;;;11.90;8.80;;;;;;;14.28;66.62;99262.81;4953519;29;20189;-76
2022/04/26 10:36:34;;;;;;;9.70;8.70;;;;;;;14.27;66.76;99264.69;4955871;28;20200;-79
2022/04/26 10:39:40;;;;;;;11.35;9.25;;;;;;;14.00;69.82;99273.09;4955698;28;20203;-76
2022/04/26 10:42:26;;;;;;;12.32;10.20;;;;;;;14.24;70.31;99270.31;4955737;28;20565;-76
2022/04/26 10:44:58;;;;;;;11.73;9.65;;;;;;;14.64;69.03;99280.72;4955812;28;20192;-75
2022/04/26 10:47:30;;;;;;;10.85;9.07;;;;;;;15.20;65.90;99271.69;4955622;28;20551;-77
2022/04/26 10:50:02;;;;;;;12.75;10.07;;;;;;;14.79;64.39;99267.81;4955352;28;20602;-77
2022/04/26 10:52:43;;;;;;;16.77;11.77;;;;;;;14.80;61.60;99275.78;4955251;28;20216;-77
2022/04/26 10:55:21;;;;;;;14.40;11.85;;;;;;;14.99;57.44;99277.00;4955008;28;20185;-75
2022/04/26 10:57:50;;;;;;;14.95;11.40;;;;;;;14.67;60.11;99282.34;4959179;28;20200;-76
2022/04/26 11:00:27;;;;;;;13.82;12.32;;;;;;;15.49;57.17;99266.56;4972116;28;20211;-76
2022/04/26 11:03:02;;;;;;;13.48;10.60;;;;;;;15.21;55.35;99267.97;4957476;28;20191;-77
2022/04/26 11:05:32;;;;;;;15.38;10.93;;;;;;;14.75;57.91;99267.19;4955782;28;20562;-77
2022/04/26 11:07:59;;;;;;;12.93;9.98;;;;;;;14.78;58.84;99275.06;4955610;28;20575;-76
2022/04/26 11:11:00;;;;;;;12.82;10.07;;;;;;;14.80;57.44;99272.22;4955582;28;20201;-75
2022/04/26 11:13:37;;;;;;;13.25;10.73;;;;;;;14.31;59.48;99279.69;4955372;29;20659;-76
2022/04/26 11:16:13;;;;;;;14.85;11.60;;;;;;;14.00;59.31;99270.41;4954054;28;20614;-77
2022/04/26 11:18:43;;;;;;;14.15;10.75;;;;;;;14.12;59.98;99280.25;4955122;29;20189;-75
2022/04/26 11:21:12;;;;;;;13.43;9.73;;;;;;;13.96;60.94;99277.88;4955301;28;20195;-75
2022/04/26 11:29:27;;;;;;;15.60;11.25;;;;;;;13.94;61.02;99285.25;4954187;29;20233;-77
2022/04/26 11:31:55;;;;;;;17.13;13.25;;;;;;;14.29;60.69;99273.53;4954073;28;20219;-77
2022/04/26 11:34:49;;;;;;;16.20;12.57;;;;;;;14.62;58.99;99277.28;4953778;28;20197;-76
2022/04/26 11:37:16;;;;;;;13.73;10.80;;;;;;;14.54;57.30;99287.81;4954053;28;20203;-77
2022/04/26 11:39:43;;;;;;;14.40;10.60;;;;;;;14.60;57.25;99274.69;4954225;28;20203;-77
2022/04/26 11:42:11;;;;;;;15.32;12.10;;;;;;;15.32;53.59;99267.09;4953630;29;20204;-76
2022/04/26 11:44:37;;;;;;;13.98;11.35;;;;;;;15.88;51.90;99263.34;4954111;28;20199;-76
2022/04/26 11:47:05;;;;;;;12.02;10.68;;;;;;;16.81;49.49;99267.94;4953757;28;20208;-79
2022/04/26 11:49:40;;;;;;;15.30;11.73;;;;;;;16.10;50.01;99275.94;4954154;28;20628;-76
2022/04/26 11:52:09;;;;;;;17.63;11.40;;;;;;;15.80;51.05;99274.84;4953972;28;20212;-77
2022/04/26 11:54:36;;;;;;;13.55;11.85;;;;;;;15.83;51.59;99280.03;4953838;28;20564;-76
2022/04/26 11:57:04;;;;;;;14.68;12.32;;;;;;;15.14;54.27;99294.75;4939615;29;20525;-77
2022/04/26 11:59:33;;;;;;;17.65;14.77;;;;;;;14.29;70.46;99306.03;4953556;28;20195;-77
2022/04/26 12:02:00;;;;;;;20.17;14.95;;;;;;;13.22;86.91;99316.84;4954057;28;20274;-76
2022/04/26 12:04:27;;;;;;;19.42;14.65;;;;;;;11.71;100.00;99327.38;4954040;28;20200;-76
2022/04/26 12:06:57;;;;;;;22.85;16.27;;;;;;;10.98;100.00;99343.84;4953573;28;20652;-74
2022/04/26 12:09:26;;;;;;;28.88;18.75;;;;;;;10.43;100.00;99345.47;4939823;29;20295;-74
2022/04/26 12:12:00;;;;;;;31.00;20.58;;;;;;;10.39;100.00;99357.41;4952034;28;20197;-74
2022/04/26 12:14:27;;;;;;;35.80;22.85;;;;;;;10.70;100.00;99360.91;4951196;28;20603;-74
2022/04/26 12:16:55;;;;;;;39.63;24.48;;;;;;;11.05;100.00;99364.03;4953448;28;20232;-76
2022/04/26 12:19:33;;;;;;;35.17;22.13;;;;;;;11.33;100.00;99346.97;4953587;29;20193;-73
2022/04/26 12:22:01;;;;;;;44.20;25.20;;;;;;;11.72;100.00;99352.53;4953098;28;20189;-76
2022/04/26 12:24:31;;;;;;;33.83;21.27;;;;;;;11.46;100.00;99344.31;4952930;28;20719;-74
2022/04/26 12:27:00;;;;;;;32.00;22.27;;;;;;;11.50;100.00;99348.53;4952705;28;20643;-75
2022/04/26 12:29:28;;;;;;;31.13;20.83;;;;;;;11.70;100.00;99339.13;4952808;28;20666;-72
2022/04/26 12:31:55;;;;;;;30.50;21.17;;;;;;;11.99;100.00;99339.91;4952450;28;20278;-75
2022/04/26 12:34:23;;;;;;;28.15;18.23;;;;;;;12.27;100.00;99335.28;4953277;28;20552;-75
2022/04/26 12:36:52;;;;;;;23.73;16.83;;;;;;;12.37;100.00;99335.50;4952968;28;20628;-76
2022/04/26 12:39:19;;;;;;;21.17;14.55;;;;;;;12.68;100.00;99328.81;4953422;28;20682;-76
2022/04/26 12:41:51;;;;;;;22.23;15.27;;;;;;;13.39;100.00;99329.16;4953117;28;20196;-77
2022/04/26 12:44:18;;;;;;;21.77;15.23;;;;;;;13.99;100.00;99322.78;4953334;28;20549;-77
2022/04/26 12:46:46;;;;;;;15.30;12.75;;;;;;;14.55;85.54;99331.09;4954354;28;20233;-76
2022/04/26 12:51:57;;;;;;;17.65;13.68;;;;;;;15.45;78.75;99326.63;4939636;29;20532;-76
2022/04/26 12:54:24;;;;;;;14.65;11.25;;;;;;;13.86;80.82;99344.53;4953198;28;20211;-76
2022/04/26 12:56:59;;;;;;;11.70;9.02;;;;;;;12.79;84.89;99361.34;4953151;28;20191;-76
2022/04/26 12:59:35;;;;;;;12.20;8.95;;;;;;;12.77;90.43;99351.63;4952528;28;20292;-75
2022/04/26 13:02:02;;;;;;;13.15;9.75;;;;;;;13.04;91.49;99355.03;4934041;29;20285;-76
2022/04/26 13:04:29;;;;;;;11.90;9.95;;;;;;;14.00;85.98;99357.03;4943583;29;20562;-77
2022/04/26 13:06:55;;;;;;;13.52;10.85;;;;;;;14.48;83.27;99350.63;4953284;28;20610;-77
2022/04/26 13:09:22;;;;;;;11.43;8.63;;;;;;;15.22;74.70;99346.50;4952779;28;20254;-77
2022/04/26 13:11:49;;;;;;;9.02;6.97;;;;;;;14.49;74.26;99361.34;4953366;28;20197;-77
2022/04/26 13:14:17;;;;;;;11.13;7.13;;;;;;;13.99;75.23;99360.69;4952204;28;20263;-77
2022/04/26 13:16:45;;;;;;;11.25;7.93;;;;;;;14.53;75.26;99361.97;4952358;28;20243;-78
2022/04/26 13:19:12;;;;;;;9.60;7.50;;;;;;;15.02;71.98;99360.81;4952493;28;20302;-77
2022/04/26 13:21:38;;;;;;;10.43;7.82;;;;;;;14.45;72.16;99364.41;4953381;28;20746;-77
2022/04/26 13:24:06;;;;;;;12.45;8.48;;;;;;;14.28;73.62;99363.03;4953303;28;20204;-77
2022/04/26 13:26:35;;;;;;;12.95;9.52;;;;;;;14.23;74.40;99370.63;4953858;28;20302;-77
2022/04/26 13:29:03;;;;;;;11.75;7.75;;;;;;;13.64;69.70;99363.38;4953748;28;20197;-82
2022/04/26 13:31:31;;;;;;;10.93;8.43;;;;;;;13.82;73.05;99356.56;4953732;28;20205;-82
2022/04/26 13:33:58;;;;;;;12.98;9.65;;;;;;;13.98;72.03;99359.84;4953547;28;20747;-82
2022/04/26 13:36:27;;;;;;;12.60;9.50;;;;;;;13.64;73.12;99363.38;4952760;28;20229;-82
2022/04/26 13:38:55;;;;;;;10.68;9.00;;;;;;;13.22;74.88;99363.66;4955469;28;20233;-80
2022/04/26 13:41:22;;;;;;;12.55;10.00;;;;;;;13.41;72.74;99363.22;4957390;28;20225;-82
2022/04/26 13:43:48;;;;;;;14.10;10.35;;;;;;;13.33;74.28;99366.47;4957674;28;20217;-83
2022/04/26 13:46:15;;;;;;;14.30;9.70;;;;;;;13.69;72.04;99367.44;4958083;28;20551;-82
2022/04/26 13:48:44;;;;;;;11.65;9.18;;;;;;;13.95;71.97;99353.78;4956112;28;20622;-81
2022/04/26 13:51:10;;;;;;;11.18;9.77;;;;;;;14.44;68.11;99360.84;4957760;28;20215;-81
2022/04/26 13:53:37;;;;;;;13.05;10.77;;;;;;;14.30;67.20;99361.91;4956112;28;20256;-82
2022/04/26 13:56:06;;;;;;;11.70;8.90;;;;;;;14.48;65.08;99356.91;4956722;28;20235;-81
2022/04/26 13:58:33;;;;;;;14.20;10.50;;;;;;;14.59;65.64;99356.97;4955758;28;20203;-82
2022/04/26 14:00:59;;;;;;;14.70;11.40;;;;;;;14.76;65.10;99363.75;4955636;28;20191;-82
2022/04/26 14:03:27;;;;;;;19.23;12.73;;;;;;;14.64;64.60;99362.03;4953272;29;20190;-83
2022/04/26 14:05:55;;;;;;;18.92;13.88;;;;;;;14.32;66.70;99351.81;4956572;28;20208;-83
2022/04/26 14:08:21;;;;;;;17.63;12.82;;;;;;;14.38;65.91;99359.50;4956082;28;20248;-82
2022/04/26 14:10:48;;;;;;;16.88;13.05;;;;;;;14.74;65.86;99354.91;4956159;28;20275;-82
2022/04/26 14:13:15;;;;;;;17.88;12.70;;;;;;;14.99;65.35;99358.34;4955930;28;20575;-82
2022/04/26 14:24:06;;;;;;;15.77;12.10;;;;;;;14.60;70.55;99350.56;4955630;29;20189;-83
2022/04/26 14:26:32;;;;;;;13.43;11.50;;;;;;;14.98;69.72;99359.34;4955587;28;20198;-83
2022/04/26 14:28:59;;;;;;;14.10;10.80;;;;;;;15.19;68.77;99357.59;4955726;28;20195;-83
2022/04/26 14:31:25;;;;;;;13.52;9.60;;;;;;;15.09;65.71;99358.50;4955498;28;20212;-82
2022/04/26 14:33:52;;;;;;;9.57;7.47;;;;;;;15.42;57.01;99354.84;4954756;28;20658;-83
2022/04/26 14:36:20;;;;;;;7.35;6.60;;;;;;;15.44;57.15;99358.31;4956208;28;20204;-82
2022/04/26 14:38:48;;;;;;;7.07;6.28;;;;;;;15.00;58.94;99362.78;4954784;28;20204;-83
2022/04/26 14:41:14;;;;;;;7.43;6.72;;;;;;;15.29;57.41;99354.16;4955825;28;20191;-83
2022/04/26 14:43:41;;;;;;;6.82;5.72;;;;;;;15.44;58.57;99363.72;4955452;28;20197;-83
2022/04/26 14:46:07;;;;;;;7.15;6.43;;;;;;;15.11;61.09;99373.66;4955487;28;20200;-84
2022/04/26 14:48:34;;;;;;;7.60;6.80;;;;;;;15.38;61.21;99370.53;4955539;28;20192;-83
2022/04/26 14:51:01;;;;;;;6.78;5.80;;;;;;;14.99;63.47;99375.50;4955633;28;20599;-83
2022/04/26 14:53:29;;;;;;;7.10;5.60;;;;;;;14.92;64.55;99376.94;4956120;28;20267;-83
2022/04/26 14:55:59;;;;;;;5.70;5.20;;;;;;;14.74;65.34;99379.28;4956426;28;20661;-81
2022/04/26 14:58:25;;;;;;;6.78;6.15;;;;;;;14.66;67.52;99389.88;4955678;28;20246;-83
2022/04/26 15:00:52;;;;;;;7.85;6.32;;;;;;;14.16;69.93;99386.50;4955645;28;20618;-83
2022/04/26 15:03:19;;;;;;;6.60;5.95;;;;;;;14.09;70.17;99387.94;4957708;28;20564;-83
2022/04/26 15:05:46;;;;;;;8.00;6.13;;;;;;;13.96;71.90;99398.81;4956156;28;20207;-83
2022/04/26 15:10:58;;;;;;;7.05;5.97;;;;;;;13.54;78.74;99393.81;4955992;29;20245;-82
2022/04/26 15:18:58;;;;;;;7.30;6.22;;;;;;;14.12;74.64;99396.69;4940077;28;20200;-83
2022/04/26 15:21:25;;;;;;;9.82;6.78;;;;;;;13.84;76.92;99399.72;4955484;28;20557;-83
2022/04/26 15:23:53;;;;;;;7.57;6.80;;;;;;;14.01;77.16;99393.06;4955069;28;20209;-83
2022/04/26 15:26:22;;;;;;;9.18;8.00;;;;;;;13.50;78.91;99394.13;4955350;28;20242;-82
2022/04/26 15:28:48;;;;;;;9.68;7.65;;;;;;;13.71;78.59;99391.69;4955054;28;20185;-83
2022/04/26 15:31:18;;;;;;;10.15;7.80;;;;;;;13.95;77.62;99395.25;4955379;28;20228;-82
2022/04/26 15:33:46;;;;;;;9.05;7.85;;;;;;;14.19;75.79;99397.06;4954949;28;20211;-82
2022/04/26 15:36:13;;;;;;;13.23;8.45;;;;;;;14.23;75.22;99403.13;4954567;28;20202;-82
2022/04/26 15:38:40;;;;;;;9.40;8.25;;;;;;;14.66;72.28;99407.97;4955100;28;20191;-82
2022/04/26 15:41:07;;;;;;;8.52;7.50;;;;;;;14.95;71.31;99405.69;4955024;28;20207;-82
2022/04/26 15:43:35;;;;;;;12.32;9.43;;;;;;;14.92;70.62;99397.78;4954291;28;20201;-82
2022/04/26 15:46:04;;;;;;;11.05;8.90;;;;;;;14.98;71.03;99408.16;4955207;28;20184;-83
2022/04/26 15:48:31;;;;;;;12.57;8.80;;;;;;;15.60;66.06;99407.63;4954873;28;20246;-83